sensor_id;sensor_type;location;lat;lon;timestamp;pressure;altitude;pressure_sealevel;temperature;humidity
41312;BME280;27061;41.648;24.568;2023-03-19T00:00:38;86045.97;;;0.57;64.35
41312;BME280;27061;41.648;24.568;2023-03-19T00:03:05;86033.69;;;0.56;65.12
41312;BME280;27061;41.648;24.568;2023-03-19T00:05:32;86031.03;;;0.58;64.75
41312;BME280;27061;41.648;24.568;2023-03-19T00:08:00;86028.84;;;0.53;64.11
41312;BME280;27061;41.648;24.568;2023-03-19T00:10:27;86080.75;;;0.87;65.02
41312;BME280;27061;41.648;24.568;2023-03-19T00:12:54;86031.31;;;0.43;64.42
41312;BME280;27061;41.648;24.568;2023-03-19T00:15:22;86064.72;;;0.71;64.90
41312;BME280;27061;41.648;24.568;2023-03-19T00:17:49;86078.78;;;0.61;65.67
41312;BME280;27061;41.648;24.568;2023-03-19T00:20:17;86082.97;;;0.66;66.41
41312;BME280;27061;41.648;24.568;2023-03-19T00:22:46;86045.88;;;0.53;65.74
41312;BME280;27061;41.648;24.568;2023-03-19T00:25:13;86015.41;;;0.33;67.31
41312;BME280;27061;41.648;24.568;2023-03-19T00:27:40;86012.25;;;0.15;68.81
41312;BME280;27061;41.648;24.568;2023-03-19T00:30:09;86045.69;;;0.45;69.04
41312;BME280;27061;41.648;24.568;2023-03-19T00:32:37;86027.91;;;0.42;68.57
41312;BME280;27061;41.648;24.568;2023-03-19T00:35:06;86000.03;;;0.16;67.91
41312;BME280;27061;41.648;24.568;2023-03-19T00:37:34;86003.81;;;0.30;69.85
41312;BME280;27061;41.648;24.568;2023-03-19T00:40:03;86014.03;;;0.32;70.78
41312;BME280;27061;41.648;24.568;2023-03-19T00:42:38;86034.97;;;0.53;71.29
41312;BME280;27061;41.648;24.568;2023-03-19T00:45:06;86006.22;;;0.46;70.55
41312;BME280;27061;41.648;24.568;2023-03-19T00:47:33;86018.00;;;0.55;69.96
41312;BME280;27061;41.648;24.568;2023-03-19T00:50:01;86029.75;;;0.61;70.25
41312;BME280;27061;41.648;24.568;2023-03-19T00:52:28;86035.50;;;0.76;70.18
41312;BME280;27061;41.648;24.568;2023-03-19T00:54:56;86000.13;;;0.48;70.73
41312;BME280;27061;41.648;24.568;2023-03-19T00:57:23;86012.28;;;0.72;70.84
41312;BME280;27061;41.648;24.568;2023-03-19T00:59:50;86022.84;;;0.88;70.65
41312;BME280;27061;41.648;24.568;2023-03-19T01:02:17;85991.66;;;0.63;70.38
41312;BME280;27061;41.648;24.568;2023-03-19T01:04:47;85977.81;;;0.55;70.72
41312;BME280;27061;41.648;24.568;2023-03-19T01:07:14;86030.28;;;0.86;71.06
41312;BME280;27061;41.648;24.568;2023-03-19T01:09:42;86009.84;;;0.85;71.55
41312;BME280;27061;41.648;24.568;2023-03-19T01:12:09;86022.53;;;1.04;70.71
41312;BME280;27061;41.648;24.568;2023-03-19T01:14:36;86031.44;;;1.06;70.49
41312;BME280;27061;41.648;24.568;2023-03-19T01:17:03;85990.88;;;0.91;70.08
41312;BME280;27061;41.648;24.568;2023-03-19T01:19:31;86012.41;;;1.08;69.57
41312;BME280;27061;41.648;24.568;2023-03-19T01:21:58;86015.69;;;1.03;69.79
41312;BME280;27061;41.648;24.568;2023-03-19T01:24:30;86024.16;;;1.17;69.52
41312;BME280;27061;41.648;24.568;2023-03-19T01:26:57;86022.81;;;1.16;69.80
41312;BME280;27061;41.648;24.568;2023-03-19T01:29:32;86027.63;;;1.20;70.09
41312;BME280;27061;41.648;24.568;2023-03-19T01:32:08;86027.78;;;1.26;69.77
41312;BME280;27061;41.648;24.568;2023-03-19T01:35:07;85991.28;;;1.09;69.31
41312;BME280;27061;41.648;24.568;2023-03-19T01:37:35;86029.28;;;1.33;70.17
41312;BME280;27061;41.648;24.568;2023-03-19T01:40:04;86012.13;;;1.26;70.65
41312;BME280;27061;41.648;24.568;2023-03-19T01:42:32;85934.94;;;0.88;69.18
41312;BME280;27061;41.648;24.568;2023-03-19T01:45:34;86021.84;;;1.35;72.48
41312;BME280;27061;41.648;24.568;2023-03-19T01:48:45;85982.97;;;1.03;74.39
41312;BME280;27061;41.648;24.568;2023-03-19T01:51:19;86003.84;;;1.22;74.66
41312;BME280;27061;41.648;24.568;2023-03-19T01:54:09;85983.69;;;1.03;74.39
41312;BME280;27061;41.648;24.568;2023-03-19T01:57:08;86031.44;;;1.38;73.76
41312;BME280;27061;41.648;24.568;2023-03-19T01:59:59;86031.44;;;1.38;73.03
41312;BME280;27061;41.648;24.568;2023-03-19T02:02:43;86038.38;;;1.43;72.99
41312;BME280;27061;41.648;24.568;2023-03-19T02:05:43;86012.97;;;1.35;72.71
41312;BME280;27061;41.648;24.568;2023-03-19T02:08:14;86013.94;;;1.50;72.54
41312;BME280;27061;41.648;24.568;2023-03-19T02:10:45;86023.81;;;1.65;70.99
41312;BME280;27061;41.648;24.568;2023-03-19T02:13:14;85968.50;;;1.28;72.32
41312;BME280;27061;41.648;24.568;2023-03-19T02:15:41;85981.31;;;1.22;72.46
41312;BME280;27061;41.648;24.568;2023-03-19T02:18:09;85991.59;;;1.23;74.32
41312;BME280;27061;41.648;24.568;2023-03-19T02:23:58;85952.94;;;1.01;74.50
41312;BME280;27061;41.648;24.568;2023-03-19T02:26:51;85966.75;;;1.09;75.78
41312;BME280;27061;41.648;24.568;2023-03-19T02:29:18;85927.84;;;0.74;76.85
41312;BME280;27061;41.648;24.568;2023-03-19T02:31:45;85761.66;;;-0.53;77.82
41312;BME280;27061;41.648;24.568;2023-03-19T02:36:45;85963.16;;;1.00;77.61
41312;BME280;27061;41.648;24.568;2023-03-19T02:39:20;85940.31;;;0.84;77.72
41312;BME280;27061;41.648;24.568;2023-03-19T02:41:53;85959.31;;;1.12;77.71
41312;BME280;27061;41.648;24.568;2023-03-19T02:44:23;86030.94;;;1.46;79.76
41312;BME280;27061;41.648;24.568;2023-03-19T02:46:52;85958.31;;;0.97;79.73
41312;BME280;27061;41.648;24.568;2023-03-19T02:49:19;85987.47;;;1.22;79.66
41312;BME280;27061;41.648;24.568;2023-03-19T02:51:47;85962.81;;;1.16;78.97
41312;BME280;27061;41.648;24.568;2023-03-19T02:54:15;85957.38;;;1.18;78.96
41312;BME280;27061;41.648;24.568;2023-03-19T02:56:42;85981.19;;;1.50;78.39
41312;BME280;27061;41.648;24.568;2023-03-19T02:59:09;85974.16;;;1.38;77.97
41312;BME280;27061;41.648;24.568;2023-03-19T03:01:36;85945.28;;;1.27;78.25
41312;BME280;27061;41.648;24.568;2023-03-19T03:04:03;86027.84;;;1.96;78.66
41312;BME280;27061;41.648;24.568;2023-03-19T03:06:31;85993.91;;;1.71;78.51
41312;BME280;27061;41.648;24.568;2023-03-19T03:09:00;86045.00;;;2.02;78.90
41312;BME280;27061;41.648;24.568;2023-03-19T03:11:28;86046.53;;;2.09;78.52
41312;BME280;27061;41.648;24.568;2023-03-19T03:13:55;86027.47;;;2.11;78.63
41312;BME280;27061;41.648;24.568;2023-03-19T03:16:22;86074.47;;;2.44;78.54
41312;BME280;27061;41.648;24.568;2023-03-19T03:18:49;85927.78;;;1.36;77.87
41312;BME280;27061;41.648;24.568;2023-03-19T03:21:18;86071.81;;;2.48;78.26
41312;BME280;27061;41.648;24.568;2023-03-19T03:23:47;85977.69;;;1.79;78.06
41312;BME280;27061;41.648;24.568;2023-03-19T03:26:14;85931.88;;;1.37;78.09
41312;BME280;27061;41.648;24.568;2023-03-19T03:28:41;86051.13;;;2.37;78.26
41312;BME280;27061;41.648;24.568;2023-03-19T03:31:09;86041.41;;;2.28;78.67
41312;BME280;27061;41.648;24.568;2023-03-19T03:33:38;86045.66;;;2.37;78.59
41312;BME280;27061;41.648;24.568;2023-03-19T03:36:05;85995.75;;;1.96;78.37
41312;BME280;27061;41.648;24.568;2023-03-19T03:38:32;85969.47;;;1.77;79.01
41312;BME280;27061;41.648;24.568;2023-03-19T03:41:00;85817.34;;;0.67;79.27
41312;BME280;27061;41.648;24.568;2023-03-19T03:43:27;86075.22;;;2.46;79.97
41312;BME280;27061;41.648;24.568;2023-03-19T03:45:54;85947.56;;;1.73;79.99
41312;BME280;27061;41.648;24.568;2023-03-19T03:48:22;86009.50;;;2.02;80.62
41312;BME280;27061;41.648;24.568;2023-03-19T03:50:49;86068.53;;;2.55;80.23
41312;BME280;27061;41.648;24.568;2023-03-19T03:53:21;86005.53;;;2.07;79.93
41312;BME280;27061;41.648;24.568;2023-03-19T03:55:49;86064.25;;;2.44;79.79
41312;BME280;27061;41.648;24.568;2023-03-19T03:58:20;86052.63;;;2.44;79.62
41312;BME280;27061;41.648;24.568;2023-03-19T04:00:47;85924.78;;;1.58;79.16
41312;BME280;27061;41.648;24.568;2023-03-19T04:03:14;86084.63;;;2.75;80.57
41312;BME280;27061;41.648;24.568;2023-03-19T04:05:43;85878.19;;;1.12;80.02
41312;BME280;27061;41.648;24.568;2023-03-19T04:08:10;85897.56;;;1.26;80.92
41312;BME280;27061;41.648;24.568;2023-03-19T04:10:39;86035.75;;;2.17;81.12
41312;BME280;27061;41.648;24.568;2023-03-19T04:13:08;86052.44;;;2.34;82.28
41312;BME280;27061;41.648;24.568;2023-03-19T04:15:37;85944.25;;;1.42;82.50
41312;BME280;27061;41.648;24.568;2023-03-19T04:18:04;85863.56;;;0.95;82.31
41312;BME280;27061;41.648;24.568;2023-03-19T04:20:32;85937.53;;;1.48;82.07
41312;BME280;27061;41.648;24.568;2023-03-19T04:22:59;86087.38;;;2.39;82.47
41312;BME280;27061;41.648;24.568;2023-03-19T04:25:28;86044.75;;;2.24;82.28
41312;BME280;27061;41.648;24.568;2023-03-19T04:27:56;86004.09;;;2.04;81.77
41312;BME280;27061;41.648;24.568;2023-03-19T04:30:26;86093.41;;;2.70;80.94
41312;BME280;27061;41.648;24.568;2023-03-19T04:32:54;85959.00;;;1.65;81.39
41312;BME280;27061;41.648;24.568;2023-03-19T04:35:21;85984.69;;;1.88;80.79
41312;BME280;27061;41.648;24.568;2023-03-19T04:37:48;86088.94;;;2.88;80.31
41312;BME280;27061;41.648;24.568;2023-03-19T04:40:17;86099.81;;;2.84;80.52
41312;BME280;27061;41.648;24.568;2023-03-19T04:42:45;85970.84;;;1.78;80.41
41312;BME280;27061;41.648;24.568;2023-03-19T04:45:24;86085.66;;;2.58;80.88
41312;BME280;27061;41.648;24.568;2023-03-19T04:47:52;86098.22;;;2.71;81.49
41312;BME280;27061;41.648;24.568;2023-03-19T04:50:19;85912.78;;;1.37;81.13
41312;BME280;27061;41.648;24.568;2023-03-19T04:52:47;86011.19;;;2.17;81.06
41312;BME280;27061;41.648;24.568;2023-03-19T04:55:14;85969.63;;;1.85;81.01
41312;BME280;27061;41.648;24.568;2023-03-19T04:57:49;86020.81;;;2.22;80.67
41312;BME280;27061;41.648;24.568;2023-03-19T05:00:19;85987.16;;;2.10;80.64
41312;BME280;27061;41.648;24.568;2023-03-19T05:02:47;86028.00;;;2.42;79.92
41312;BME280;27061;41.648;24.568;2023-03-19T05:05:14;86005.97;;;2.32;80.14
41312;BME280;27061;41.648;24.568;2023-03-19T05:07:42;86077.22;;;2.82;79.77
41312;BME280;27061;41.648;24.568;2023-03-19T05:10:10;85976.91;;;2.10;80.09
41312;BME280;27061;41.648;24.568;2023-03-19T05:12:38;86091.88;;;3.01;79.96
41312;BME280;27061;41.648;24.568;2023-03-19T05:15:06;86135.94;;;3.19;80.39
41312;BME280;27061;41.648;24.568;2023-03-19T05:17:37;86112.66;;;3.18;79.69
41312;BME280;27061;41.648;24.568;2023-03-19T05:20:27;86093.34;;;3.08;79.05
41312;BME280;27061;41.648;24.568;2023-03-19T05:23:00;86081.06;;;3.09;78.80
41312;BME280;27061;41.648;24.568;2023-03-19T05:25:53;86078.91;;;3.01;79.06
41312;BME280;27061;41.648;24.568;2023-03-19T05:28:38;86132.19;;;3.40;79.47
41312;BME280;27061;41.648;24.568;2023-03-19T05:31:05;86131.78;;;3.14;79.76
41312;BME280;27061;41.648;24.568;2023-03-19T05:33:40;86050.84;;;2.58;79.47
41312;BME280;27061;41.648;24.568;2023-03-19T05:36:08;86061.53;;;2.84;79.32
41312;BME280;27061;41.648;24.568;2023-03-19T05:38:47;86087.88;;;3.08;78.76
41312;BME280;27061;41.648;24.568;2023-03-19T05:41:22;86086.41;;;3.01;79.08
41312;BME280;27061;41.648;24.568;2023-03-19T05:43:57;85876.28;;;1.55;78.12
41312;BME280;27061;41.648;24.568;2023-03-19T05:46:53;86064.09;;;2.74;79.64
41312;BME280;27061;41.648;24.568;2023-03-19T05:49:24;86062.81;;;2.79;78.89
41312;BME280;27061;41.648;24.568;2023-03-19T05:51:51;86130.69;;;3.31;78.16
41312;BME280;27061;41.648;24.568;2023-03-19T05:54:19;85954.88;;;2.00;78.05
41312;BME280;27061;41.648;24.568;2023-03-19T05:56:55;86147.75;;;3.29;79.54
41312;BME280;27061;41.648;24.568;2023-03-19T05:59:42;86032.41;;;2.59;79.53
41312;BME280;27061;41.648;24.568;2023-03-19T06:02:43;86047.59;;;2.68;78.69
41312;BME280;27061;41.648;24.568;2023-03-19T06:05:25;86118.28;;;3.26;78.70
41312;BME280;27061;41.648;24.568;2023-03-19T06:07:56;86115.53;;;3.24;78.72
41312;BME280;27061;41.648;24.568;2023-03-19T06:10:47;86068.09;;;2.69;79.71
41312;BME280;27061;41.648;24.568;2023-03-19T06:13:14;86152.69;;;3.39;79.66
41312;BME280;27061;41.648;24.568;2023-03-19T06:15:48;86135.50;;;3.33;79.43
41312;BME280;27061;41.648;24.568;2023-03-19T06:18:34;86170.84;;;3.60;79.53
41312;BME280;27061;41.648;24.568;2023-03-19T06:21:12;86140.56;;;3.50;79.39
41312;BME280;27061;41.648;24.568;2023-03-19T06:23:39;86157.25;;;3.66;79.33
41312;BME280;27061;41.648;24.568;2023-03-19T06:26:09;86180.63;;;3.74;78.72
41312;BME280;27061;41.648;24.568;2023-03-19T06:28:45;86162.94;;;3.79;77.99
41312;BME280;27061;41.648;24.568;2023-03-19T06:31:14;86176.25;;;4.00;77.25
41312;BME280;27061;41.648;24.568;2023-03-19T06:34:00;86067.63;;;3.23;76.38
41312;BME280;27061;41.648;24.568;2023-03-19T06:36:36;86148.47;;;3.74;77.29
41312;BME280;27061;41.648;24.568;2023-03-19T06:39:04;86110.28;;;3.38;76.86
41312;BME280;27061;41.648;24.568;2023-03-19T06:41:31;86120.81;;;3.56;76.91
41312;BME280;27061;41.648;24.568;2023-03-19T06:44:09;86074.44;;;3.22;76.65
41312;BME280;27061;41.648;24.568;2023-03-19T06:46:37;86031.94;;;2.73;76.60
41312;BME280;27061;41.648;24.568;2023-03-19T06:49:04;86144.16;;;3.61;76.34
41312;BME280;27061;41.648;24.568;2023-03-19T06:51:33;86169.84;;;3.84;76.63
41312;BME280;27061;41.648;24.568;2023-03-19T06:54:00;86169.22;;;3.87;76.89
41312;BME280;27061;41.648;24.568;2023-03-19T06:56:27;86179.59;;;3.95;77.04
41312;BME280;27061;41.648;24.568;2023-03-19T06:58:55;86079.34;;;3.29;77.65
41312;BME280;27061;41.648;24.568;2023-03-19T07:01:22;86044.88;;;3.12;77.47
41312;BME280;27061;41.648;24.568;2023-03-19T07:03:49;86086.41;;;3.43;77.23
41312;BME280;27061;41.648;24.568;2023-03-19T07:06:17;86186.25;;;4.30;75.61
41312;BME280;27061;41.648;24.568;2023-03-19T07:08:44;86040.34;;;3.27;75.12
41312;BME280;27061;41.648;24.568;2023-03-19T07:11:13;86163.66;;;4.29;74.83
41312;BME280;27061;41.648;24.568;2023-03-19T07:13:41;86027.47;;;3.36;74.48
41312;BME280;27061;41.648;24.568;2023-03-19T07:16:08;86184.91;;;4.31;74.46
41312;BME280;27061;41.648;24.568;2023-03-19T07:18:35;86144.16;;;4.07;74.67
41312;BME280;27061;41.648;24.568;2023-03-19T07:21:02;86077.72;;;3.56;75.02
41312;BME280;27061;41.648;24.568;2023-03-19T07:23:29;86071.75;;;3.70;74.79
41312;BME280;27061;41.648;24.568;2023-03-19T07:25:56;86188.81;;;4.66;74.50
41312;BME280;27061;41.648;24.568;2023-03-19T07:28:24;86095.81;;;3.78;74.26
41312;BME280;27061;41.648;24.568;2023-03-19T07:30:52;86149.50;;;3.97;77.82
41312;BME280;27061;41.648;24.568;2023-03-19T07:33:19;86180.22;;;4.39;75.05
41312;BME280;27061;41.648;24.568;2023-03-19T07:35:47;86150.56;;;4.26;76.61
41312;BME280;27061;41.648;24.568;2023-03-19T07:38:15;86195.66;;;4.65;76.57
41312;BME280;27061;41.648;24.568;2023-03-19T07:40:42;86147.69;;;4.16;79.09
41312;BME280;27061;41.648;24.568;2023-03-19T07:43:24;86061.50;;;3.73;78.33
41312;BME280;27061;41.648;24.568;2023-03-19T07:45:51;86170.31;;;4.68;77.63
41312;BME280;27061;41.648;24.568;2023-03-19T07:48:19;86171.22;;;4.85;76.49
41312;BME280;27061;41.648;24.568;2023-03-19T07:50:49;86175.56;;;5.06;75.20
41312;BME280;27061;41.648;24.568;2023-03-19T07:53:17;86157.59;;;4.95;74.52
41312;BME280;27061;41.648;24.568;2023-03-19T07:55:44;86080.31;;;4.51;75.50
41312;BME280;27061;41.648;24.568;2023-03-19T07:58:11;86030.72;;;4.30;74.52
41312;BME280;27061;41.648;24.568;2023-03-19T08:00:39;86014.97;;;4.31;73.28
41312;BME280;27061;41.648;24.568;2023-03-19T08:03:06;86163.72;;;5.56;72.35
41312;BME280;27061;41.648;24.568;2023-03-19T08:05:33;86067.69;;;4.90;75.73
41312;BME280;27061;41.648;24.568;2023-03-19T08:08:00;86156.91;;;5.65;78.34
41312;BME280;27061;41.648;24.568;2023-03-19T08:10:27;86074.16;;;5.23;77.84
41312;BME280;27061;41.648;24.568;2023-03-19T08:12:54;86170.81;;;5.85;74.42
41312;BME280;27061;41.648;24.568;2023-03-19T08:15:22;86167.38;;;5.85;73.94
41312;BME280;27061;41.648;24.568;2023-03-19T08:18:00;86086.06;;;5.47;74.35
41312;BME280;27061;41.648;24.568;2023-03-19T08:20:29;85920.56;;;4.44;73.81
41312;BME280;27061;41.648;24.568;2023-03-19T08:22:57;86185.03;;;6.42;75.90
41312;BME280;27061;41.648;24.568;2023-03-19T08:25:24;86167.22;;;6.51;75.30
41312;BME280;27061;41.648;24.568;2023-03-19T08:27:52;86131.41;;;6.43;71.02
41312;BME280;27061;41.648;24.568;2023-03-19T08:30:20;85951.88;;;5.01;72.14
41312;BME280;27061;41.648;24.568;2023-03-19T08:32:47;86073.50;;;6.17;74.10
41312;BME280;27061;41.648;24.568;2023-03-19T08:35:15;86163.38;;;7.13;71.25
41312;BME280;27061;41.648;24.568;2023-03-19T08:37:42;85974.38;;;5.82;71.14
41312;BME280;27061;41.648;24.568;2023-03-19T08:40:10;86080.66;;;6.79;71.02
41312;BME280;27061;41.648;24.568;2023-03-19T08:42:37;85967.63;;;6.06;69.31
41312;BME280;27061;41.648;24.568;2023-03-19T08:45:12;86126.94;;;7.31;67.12
41312;BME280;27061;41.648;24.568;2023-03-19T08:47:40;86071.13;;;7.02;70.47
41312;BME280;27061;41.648;24.568;2023-03-19T08:50:08;86043.59;;;7.02;68.29
41312;BME280;27061;41.648;24.568;2023-03-19T08:52:36;86151.84;;;7.73;67.45
41312;BME280;27061;41.648;24.568;2023-03-19T08:55:03;86063.63;;;7.33;67.54
41312;BME280;27061;41.648;24.568;2023-03-19T08:57:31;86138.78;;;8.04;63.72
41312;BME280;27061;41.648;24.568;2023-03-19T09:00:03;86091.91;;;7.66;61.37
41312;BME280;27061;41.648;24.568;2023-03-19T09:02:32;86125.69;;;8.17;61.44
41312;BME280;27061;41.648;24.568;2023-03-19T09:05:00;86134.63;;;8.28;62.10
41312;BME280;27061;41.648;24.568;2023-03-19T09:07:28;86022.31;;;7.53;62.35
41312;BME280;27061;41.648;24.568;2023-03-19T09:10:01;86163.63;;;8.63;63.03
41312;BME280;27061;41.648;24.568;2023-03-19T09:12:28;86074.00;;;8.03;62.58
41312;BME280;27061;41.648;24.568;2023-03-19T09:14:55;86175.97;;;8.97;60.67
41312;BME280;27061;41.648;24.568;2023-03-19T09:17:22;86081.53;;;8.29;61.95
41312;BME280;27061;41.648;24.568;2023-03-19T09:19:50;86014.75;;;7.94;63.19
41312;BME280;27061;41.648;24.568;2023-03-19T09:22:17;86165.53;;;9.32;60.98
41312;BME280;27061;41.648;24.568;2023-03-19T09:24:44;86064.28;;;8.55;58.62
41312;BME280;27061;41.648;24.568;2023-03-19T09:27:11;85956.81;;;7.96;60.80
41312;BME280;27061;41.648;24.568;2023-03-19T09:29:41;86064.19;;;8.79;60.18
41312;BME280;27061;41.648;24.568;2023-03-19T09:32:09;86044.88;;;8.79;61.27
41312;BME280;27061;41.648;24.568;2023-03-19T09:34:36;86031.13;;;8.67;60.79
41312;BME280;27061;41.648;24.568;2023-03-19T09:37:03;86018.66;;;8.82;60.21
41312;BME280;27061;41.648;24.568;2023-03-19T09:39:30;85907.88;;;8.05;60.92
41312;BME280;27061;41.648;24.568;2023-03-19T09:42:08;86152.00;;;10.11;62.04
41312;BME280;27061;41.648;24.568;2023-03-19T09:44:45;85903.00;;;8.22;56.32
41312;BME280;27061;41.648;24.568;2023-03-19T09:49:57;86059.56;;;9.78;58.98
41312;BME280;27061;41.648;24.568;2023-03-19T09:52:46;86146.09;;;10.64;61.37
41312;BME280;27061;41.648;24.568;2023-03-19T09:55:27;86141.75;;;10.83;57.63
41312;BME280;27061;41.648;24.568;2023-03-19T09:57:57;86154.19;;;10.88;60.36
41312;BME280;27061;41.648;24.568;2023-03-19T10:00:29;85980.75;;;9.81;59.77
41312;BME280;27061;41.648;24.568;2023-03-19T10:03:26;85895.41;;;9.40;56.93
41312;BME280;27061;41.648;24.568;2023-03-19T10:14:40;86136.72;;;11.67;56.30
41312;BME280;27061;41.648;24.568;2023-03-19T10:17:18;86050.03;;;11.14;52.69
41312;BME280;27061;41.648;24.568;2023-03-19T10:19:54;86139.88;;;11.96;49.41
41312;BME280;27061;41.648;24.568;2023-03-19T10:22:31;85996.13;;;11.02;50.65
41312;BME280;27061;41.648;24.568;2023-03-19T10:25:02;86042.72;;;11.45;50.86
41312;BME280;27061;41.648;24.568;2023-03-19T10:27:32;86053.59;;;11.61;52.05
41312;BME280;27061;41.648;24.568;2023-03-19T10:29:59;86028.66;;;11.61;51.66
41312;BME280;27061;41.648;24.568;2023-03-19T10:32:42;86117.75;;;12.39;48.74
41312;BME280;27061;41.648;24.568;2023-03-19T10:35:22;86116.16;;;12.51;51.16
41312;BME280;27061;41.648;24.568;2023-03-19T10:37:50;86100.47;;;12.33;45.94
41312;BME280;27061;41.648;24.568;2023-03-19T10:40:48;85980.09;;;11.64;50.02
41312;BME280;27061;41.648;24.568;2023-03-19T10:43:23;85905.88;;;11.20;50.97
41312;BME280;27061;41.648;24.568;2023-03-19T10:45:52;86092.16;;;12.76;47.31
41312;BME280;27061;41.648;24.568;2023-03-19T10:48:24;85913.19;;;11.42;46.35
41312;BME280;27061;41.648;24.568;2023-03-19T10:51:03;86028.94;;;12.37;45.00
41312;BME280;27061;41.648;24.568;2023-03-19T10:53:36;85860.13;;;11.23;46.62
41312;BME280;27061;41.648;24.568;2023-03-19T10:56:17;85964.13;;;12.10;46.10
41312;BME280;27061;41.648;24.568;2023-03-19T10:58:55;86090.34;;;13.01;45.03
41312;BME280;27061;41.648;24.568;2023-03-19T11:01:37;86072.34;;;12.98;46.28
41312;BME280;27061;41.648;24.568;2023-03-19T11:04:18;85851.69;;;11.31;44.16
41312;BME280;27061;41.648;24.568;2023-03-19T11:06:50;85849.84;;;11.58;48.69
41312;BME280;27061;41.648;24.568;2023-03-19T11:09:36;85861.03;;;11.54;44.63
41312;BME280;27061;41.648;24.568;2023-03-19T11:12:31;86077.19;;;13.39;45.73
41312;BME280;27061;41.648;24.568;2023-03-19T11:15:00;85993.59;;;12.73;45.13
41312;BME280;27061;41.648;24.568;2023-03-19T11:17:47;85851.16;;;11.63;46.92
41312;BME280;27061;41.648;24.568;2023-03-19T11:20:31;85842.56;;;11.82;49.00
41312;BME280;27061;41.648;24.568;2023-03-19T11:23:00;85836.97;;;11.84;49.00
41312;BME280;27061;41.648;24.568;2023-03-19T11:25:40;86048.88;;;13.65;43.42
41312;BME280;27061;41.648;24.568;2023-03-19T11:28:11;85931.75;;;12.76;46.84
41312;BME280;27061;41.648;24.568;2023-03-19T11:31:06;85949.84;;;13.10;43.01
41312;BME280;27061;41.648;24.568;2023-03-19T11:45:21;86030.63;;;14.05;43.39
41312;BME280;27061;41.648;24.568;2023-03-19T11:56:22;85831.00;;;12.78;44.33
41312;BME280;27061;41.648;24.568;2023-03-19T11:59:07;86031.31;;;14.37;44.67
41312;BME280;27061;41.648;24.568;2023-03-19T12:10:19;86018.63;;;14.73;44.84
41312;BME280;27061;41.648;24.568;2023-03-19T12:16:16;86028.78;;;14.84;41.09
41312;BME280;27061;41.648;24.568;2023-03-19T12:21:38;86038.16;;;14.99;43.25
41312;BME280;27061;41.648;24.568;2023-03-19T12:24:20;86033.66;;;15.13;42.32
41312;BME280;27061;41.648;24.568;2023-03-19T12:27:21;86039.59;;;15.25;42.60
41312;BME280;27061;41.648;24.568;2023-03-19T12:35:25;85890.97;;;14.52;36.63
41312;BME280;27061;41.648;24.568;2023-03-19T12:38:02;85952.38;;;15.02;40.10
41312;BME280;27061;41.648;24.568;2023-03-19T12:40:35;85955.59;;;15.13;40.64
41312;BME280;27061;41.648;24.568;2023-03-19T12:43:27;85949.31;;;15.12;38.66
41312;BME280;27061;41.648;24.568;2023-03-19T12:46:32;86018.03;;;15.76;36.33
41312;BME280;27061;41.648;24.568;2023-03-19T12:49:10;85802.78;;;14.16;38.32
41312;BME280;27061;41.648;24.568;2023-03-19T12:51:45;85935.56;;;15.31;39.18
41312;BME280;27061;41.648;24.568;2023-03-19T12:54:38;85888.31;;;15.00;38.40
41312;BME280;27061;41.648;24.568;2023-03-19T12:57:14;85878.75;;;14.93;35.46
41312;BME280;27061;41.648;24.568;2023-03-19T13:03:28;86007.31;;;16.09;37.78
41312;BME280;27061;41.648;24.568;2023-03-19T13:05:50;85864.69;;;14.97;38.00
41312;BME280;27061;41.648;24.568;2023-03-19T13:08:36;86005.78;;;15.89;35.61
41312;BME280;27061;41.648;24.568;2023-03-19T13:11:19;85994.94;;;16.02;39.72
41312;BME280;27061;41.648;24.568;2023-03-19T13:14:06;86002.28;;;16.14;39.60
41312;BME280;27061;41.648;24.568;2023-03-19T13:16:42;86000.78;;;16.17;38.87
41312;BME280;27061;41.648;24.568;2023-03-19T13:19:25;85995.09;;;16.21;38.02
41312;BME280;27061;41.648;24.568;2023-03-19T13:21:59;85818.91;;;14.90;34.63
41312;BME280;27061;41.648;24.568;2023-03-19T13:24:35;85998.94;;;16.32;38.17
41312;BME280;27061;41.648;24.568;2023-03-19T13:27:06;85930.78;;;15.77;37.56
41312;BME280;27061;41.648;24.568;2023-03-19T13:29:36;85845.50;;;15.34;38.62
41312;BME280;27061;41.648;24.568;2023-03-19T13:32:33;85788.31;;;14.88;37.88
41312;BME280;27061;41.648;24.568;2023-03-19T13:37:56;85933.34;;;16.08;38.16
41312;BME280;27061;41.648;24.568;2023-03-19T13:40:39;85995.25;;;16.62;38.84
41312;BME280;27061;41.648;24.568;2023-03-19T13:48:48;85993.97;;;16.57;34.47
41312;BME280;27061;41.648;24.568;2023-03-19T13:56:27;85797.94;;;15.16;36.64
41312;BME280;27061;41.648;24.568;2023-03-19T13:59:23;86000.41;;;16.74;38.45
41312;BME280;27061;41.648;24.568;2023-03-19T14:01:51;85998.41;;;16.73;37.71
41312;BME280;27061;41.648;24.568;2023-03-19T14:06:54;85976.97;;;16.65;37.84
41312;BME280;27061;41.648;24.568;2023-03-19T14:09:40;85990.50;;;16.79;35.61
41312;BME280;27061;41.648;24.568;2023-03-19T14:14:54;85992.59;;;16.79;34.84
41312;BME280;27061;41.648;24.568;2023-03-19T14:17:44;85919.38;;;16.31;34.78
41312;BME280;27061;41.648;24.568;2023-03-19T14:28:50;85856.09;;;15.55;33.87
41312;BME280;27061;41.648;24.568;2023-03-19T14:31:29;85993.91;;;16.59;34.62
41312;BME280;27061;41.648;24.568;2023-03-19T14:36:41;85874.66;;;15.87;35.77
41312;BME280;27061;41.648;24.568;2023-03-19T14:39:21;85969.50;;;16.58;37.31
41312;BME280;27061;41.648;24.568;2023-03-19T14:41:57;85871.72;;;15.91;36.66
41312;BME280;27061;41.648;24.568;2023-03-19T14:45:07;85905.94;;;16.13;35.85
41312;BME280;27061;41.648;24.568;2023-03-19T14:48:07;85842.56;;;15.63;35.67
41312;BME280;27061;41.648;24.568;2023-03-19T14:53:47;85991.56;;;16.68;35.89
41312;BME280;27061;41.648;24.568;2023-03-19T14:56:21;85883.38;;;15.75;35.75
41312;BME280;27061;41.648;24.568;2023-03-19T14:58:55;85993.28;;;16.57;35.94
41312;BME280;27061;41.648;24.568;2023-03-19T15:01:24;85973.78;;;16.32;34.42